Time;durP1;ratioP1;P1;durP2;ratioP2;P2;SDS_P1;SDS_P2;PMS_P1;PMS_P2;Temp;Humidity;BMP_temperature;BMP_pressure;BME280_temperature;BME280_humidity;BME280_pressure;Samples;Min_cycle;Max_cycle;Signal;HPM_P1;HPM_P2
2021/11/21 00:01:14;;;;;;;28.30;15.13;;;6.50;99.90;;;;;;5056511;28;20453;-62
2021/11/21 00:03:40;;;;;;;24.77;13.80;;;6.40;99.90;;;;;;5057148;28;20853;-61
2021/11/21 00:06:06;;;;;;;24.20;12.13;;;6.40;99.90;;;;;;5055389;28;20512;-62
2021/11/21 00:08:32;;;;;;;28.00;14.40;;;6.40;99.90;;;;;;5059417;28;20448;-62
2021/11/21 00:10:57;;;;;;;25.57;14.40;;;6.40;99.90;;;;;;5055207;28;20438;-61
2021/11/21 00:13:24;;;;;;;26.43;14.53;;;6.40;99.90;;;;;;5057354;28;20828;-62
2021/11/21 00:15:49;;;;;;;25.90;13.90;;;6.40;99.90;;;;;;5058942;28;20183;-62
2021/11/21 00:18:15;;;;;;;28.63;15.93;;;6.30;99.90;;;;;;5055233;28;22460;-62
2021/11/21 00:20:43;;;;;;;26.73;15.20;;;6.30;99.90;;;;;;5054081;28;20191;-62
2021/11/21 00:23:09;;;;;;;30.67;17.30;;;6.40;99.90;;;;;;5055272;28;20477;-62
2021/11/21 00:25:36;;;;;;;29.57;17.67;;;6.50;99.90;;;;;;5056266;28;21071;-61
2021/11/21 00:28:02;;;;;;;30.67;16.83;;;6.50;99.90;;;;;;5053803;28;20441;-62
2021/11/21 00:30:28;;;;;;;29.47;16.73;;;6.40;99.90;;;;;;5057585;28;20446;-62
2021/11/21 00:32:55;;;;;;;28.50;16.17;;;6.40;99.90;;;;;;5059570;28;20563;-62
2021/11/21 00:35:20;;;;;;;31.70;18.43;;;6.40;99.90;;;;;;5054132;28;20516;-62
2021/11/21 00:37:46;;;;;;;30.13;17.60;;;6.50;99.90;;;;;;5057652;28;20557;-62
2021/11/21 00:40:12;;;;;;;28.63;16.27;;;6.50;99.90;;;;;;5056235;28;20197;-61
2021/11/21 00:42:38;;;;;;;30.67;17.13;;;6.40;99.90;;;;;;5057031;28;20212;-62
2021/11/21 00:45:06;;;;;;;31.40;17.30;;;6.40;99.90;;;;;;5052831;28;20195;-63
2021/11/21 00:47:31;;;;;;;28.63;18.13;;;6.40;99.90;;;;;;5053442;28;20175;-63
2021/11/21 00:49:57;;;;;;;27.00;18.47;;;6.30;99.90;;;;;;5055621;28;20798;-62
2021/11/21 00:52:23;;;;;;;29.03;16.77;;;6.40;99.90;;;;;;5054029;28;20291;-62
2021/11/21 00:54:54;;;;;;;25.13;16.47;;;6.30;99.90;;;;;;5052751;28;20435;-62
2021/11/21 00:57:20;;;;;;;30.63;16.10;;;6.40;99.90;;;;;;5055155;28;20183;-60
2021/11/21 00:59:47;;;;;;;30.13;17.50;;;6.40;99.90;;;;;;5056217;28;20438;-61
2021/11/21 01:02:13;;;;;;;30.47;16.10;;;6.40;99.90;;;;;;5059055;28;20465;-61
2021/11/21 01:04:43;;;;;;;28.60;17.43;;;6.40;99.90;;;;;;5054158;28;20476;-62
2021/11/21 01:07:11;;;;;;;25.57;16.87;;;6.30;99.90;;;;;;5056441;28;20464;-62
2021/11/21 01:09:37;;;;;;;24.90;16.73;;;6.40;99.90;;;;;;5056918;28;20425;-62
2021/11/21 01:12:04;;;;;;;26.10;18.07;;;6.40;99.90;;;;;;5055175;28;20966;-61
2021/11/21 01:14:30;;;;;;;28.17;18.00;;;6.50;99.90;;;;;;5056752;28;20430;-62
2021/11/21 01:16:56;;;;;;;25.93;17.57;;;6.50;99.90;;;;;;5055528;28;20426;-61
2021/11/21 01:19:22;;;;;;;24.40;15.40;;;6.50;99.90;;;;;;5054631;28;20958;-62
2021/11/21 01:21:49;;;;;;;29.90;17.40;;;6.60;99.90;;;;;;5054944;28;20454;-62
2021/11/21 01:24:15;;;;;;;29.03;16.67;;;6.50;99.90;;;;;;5055557;28;20440;-62
2021/11/21 01:26:41;;;;;;;28.67;16.13;;;6.50;99.90;;;;;;5040429;28;20923;-61
2021/11/21 01:29:07;;;;;;;26.07;16.97;;;6.60;99.90;;;;;;5049016;28;20570;-62
2021/11/21 01:31:32;;;;;;;25.70;15.13;;;6.60;99.90;;;;;;5055676;28;20472;-62
2021/11/21 01:33:58;;;;;;;24.67;16.23;;;6.60;99.90;;;;;;5054135;28;20606;-62
2021/11/21 01:36:23;;;;;;;24.80;17.60;;;6.50;99.90;;;;;;5054410;28;20187;-61
2021/11/21 01:38:49;;;;;;;24.93;16.70;;;6.40;99.90;;;;;;5053152;28;20180;-60
2021/11/21 01:41:15;;;;;;;26.27;17.23;;;6.40;99.90;;;;;;5054722;28;20203;-61
2021/11/21 01:43:42;;;;;;;26.60;16.97;;;6.40;99.90;;;;;;5038792;28;20198;-61
2021/11/21 01:46:08;;;;;;;23.53;15.80;;;6.40;99.90;;;;;;5050591;28;20215;-61
2021/11/21 01:48:34;;;;;;;25.33;16.80;;;6.30;99.90;;;;;;5055942;28;20483;-61
2021/11/21 01:51:05;;;;;;;24.40;16.47;;;6.20;99.90;;;;;;5054588;28;20430;-61
2021/11/21 01:53:31;;;;;;;25.90;16.63;;;6.20;99.90;;;;;;5052855;28;20486;-61
2021/11/21 01:55:58;;;;;;;26.00;16.57;;;6.20;99.90;;;;;;5054854;28;20462;-61
2021/11/21 01:58:24;;;;;;;27.67;16.73;;;6.20;99.90;;;;;;5055215;28;20430;-61
2021/11/21 02:00:51;;;;;;;33.63;18.37;;;6.20;99.90;;;;;;5055346;28;20422;-61
2021/11/21 02:03:18;;;;;;;26.80;18.00;;;6.30;99.90;;;;;;5053574;28;20926;-62
2021/11/21 02:05:45;;;;;;;24.17;17.33;;;6.40;99.90;;;;;;5053951;28;20492;-61
2021/11/21 02:08:11;;;;;;;26.67;16.47;;;6.40;99.90;;;;;;5054937;28;20875;-61
2021/11/21 02:10:37;;;;;;;31.67;17.80;;;6.40;99.90;;;;;;5052591;28;20448;-62
2021/11/21 02:13:05;;;;;;;26.70;16.13;;;6.40;99.90;;;;;;5054849;28;20450;-62
2021/11/21 02:15:32;;;;;;;30.33;19.00;;;6.40;99.90;;;;;;5042623;28;20927;-62
2021/11/21 02:17:57;;;;;;;23.43;16.73;;;6.30;99.90;;;;;;5052087;28;20985;-61
2021/11/21 02:20:35;;;;;;;29.00;18.90;;;6.20;99.90;;;;;;5056703;28;20429;-61
2021/11/21 02:23:02;;;;;;;28.07;17.70;;;6.30;99.90;;;;;;5054143;28;20213;-61
2021/11/21 02:25:28;;;;;;;31.90;18.27;;;6.30;99.90;;;;;;5056527;28;20461;-61
2021/11/21 02:27:54;;;;;;;31.77;19.47;;;6.30;99.90;;;;;;5053350;28;20494;-62
2021/11/21 02:30:20;;;;;;;31.13;17.20;;;6.30;99.90;;;;;;5054365;28;20184;-61
2021/11/21 02:32:50;;;;;;;26.53;17.63;;;6.40;99.90;;;;;;5052756;28;20248;-62
2021/11/21 02:35:17;;;;;;;25.40;16.00;;;6.30;99.90;;;;;;5052302;28;20187;-61
2021/11/21 02:37:43;;;;;;;26.40;18.97;;;6.20;99.90;;;;;;5051007;28;20957;-62
2021/11/21 02:40:10;;;;;;;21.43;14.73;;;6.20;99.90;;;;;;5054231;28;20442;-61
2021/11/21 02:42:36;;;;;;;26.40;17.77;;;6.20;99.90;;;;;;5054813;28;20458;-62
2021/11/21 02:45:08;;;;;;;25.43;17.43;;;6.30;99.90;;;;;;5055282;28;20470;-61
2021/11/21 02:47:34;;;;;;;23.47;14.87;;;6.20;99.90;;;;;;5055948;28;20620;-61
2021/11/21 02:50:15;;;;;;;27.10;17.10;;;6.20;99.90;;;;;;5050553;28;20437;-62
2021/11/21 02:52:41;;;;;;;22.70;15.57;;;6.10;99.90;;;;;;5053611;28;20499;-62
2021/11/21 02:55:07;;;;;;;21.17;13.63;;;6.10;99.90;;;;;;5057477;28;20505;-62
2021/11/21 02:57:33;;;;;;;24.20;17.60;;;6.10;99.90;;;;;;5053843;28;20176;-62
2021/11/21 03:00:01;;;;;;;29.00;16.87;;;6.00;99.90;;;;;;5051387;28;20445;-61
2021/11/21 03:02:27;;;;;;;23.93;15.10;;;6.00;99.90;;;;;;5053911;28;21378;-61
2021/11/21 03:04:53;;;;;;;23.77;15.10;;;6.00;99.90;;;;;;5050977;28;20426;-61
2021/11/21 03:07:20;;;;;;;24.10;15.80;;;6.10;99.90;;;;;;5052314;28;20756;-61
2021/11/21 03:09:48;;;;;;;26.90;17.83;;;6.20;99.90;;;;;;5056552;28;20460;-62
2021/11/21 03:12:13;;;;;;;26.43;14.27;;;6.30;99.90;;;;;;5052547;28;21094;-61
2021/11/21 03:14:39;;;;;;;25.37;16.70;;;6.30;99.90;;;;;;5056265;28;20466;-61
2021/11/21 03:17:06;;;;;;;24.40;16.90;;;6.10;99.90;;;;;;5053717;28;20229;-61
2021/11/21 03:19:32;;;;;;;24.53;15.13;;;6.00;99.90;;;;;;5055348;28;20192;-61
2021/11/21 03:21:58;;;;;;;26.90;17.80;;;6.10;99.90;;;;;;5037612;28;20462;-61
2021/11/21 03:24:24;;;;;;;32.23;18.10;;;6.00;99.90;;;;;;5054990;28;20890;-62
2021/11/21 03:26:49;;;;;;;28.47;16.33;;;5.90;99.90;;;;;;5052142;28;20469;-61
2021/11/21 03:29:15;;;;;;;27.77;18.50;;;5.90;99.90;;;;;;5051576;28;20184;-62
2021/11/21 03:31:41;;;;;;;28.70;18.73;;;6.00;99.90;;;;;;5056927;28;20266;-62
2021/11/21 03:34:06;;;;;;;26.33;18.23;;;6.10;99.90;;;;;;5052102;28;20551;-62
2021/11/21 03:36:33;;;;;;;24.13;16.73;;;6.20;99.90;;;;;;5051367;28;20281;-62
2021/11/21 03:39:00;;;;;;;25.23;16.90;;;6.30;99.90;;;;;;5053471;28;20190;-62
2021/11/21 03:41:26;;;;;;;24.13;14.67;;;6.30;99.90;;;;;;5052150;28;20591;-61
2021/11/21 03:43:52;;;;;;;27.33;15.87;;;6.30;99.90;;;;;;5057553;28;20465;-62
2021/11/21 03:46:19;;;;;;;23.30;16.83;;;6.40;99.90;;;;;;5059858;28;20461;-62
2021/11/21 03:48:44;;;;;;;24.63;15.90;;;6.40;99.90;;;;;;5054785;28;20500;-61
2021/11/21 03:51:10;;;;;;;25.60;16.70;;;6.30;99.90;;;;;;5055587;28;20446;-61
2021/11/21 03:53:36;;;;;;;25.60;17.07;;;6.30;99.90;;;;;;5041173;28;20488;-61
2021/11/21 03:56:02;;;;;;;27.53;16.97;;;6.20;99.90;;;;;;5053616;28;20237;-61
2021/11/21 03:58:27;;;;;;;36.13;19.00;;;6.10;99.90;;;;;;5039496;28;20935;-61
2021/11/21 04:00:53;;;;;;;26.13;15.20;;;6.00;99.90;;;;;;5056111;28;20696;-62
2021/11/21 04:03:19;;;;;;;28.63;16.63;;;5.90;99.90;;;;;;5053176;28;20279;-61
2021/11/21 04:05:45;;;;;;;24.87;16.10;;;6.00;99.90;;;;;;5058525;28;20207;-61
2021/11/21 04:08:11;;;;;;;25.63;16.93;;;6.10;99.90;;;;;;5060600;28;20460;-61
2021/11/21 04:10:37;;;;;;;30.33;18.37;;;6.10;99.90;;;;;;5057241;28;20431;-61
2021/11/21 04:13:04;;;;;;;29.87;17.27;;;6.20;99.90;;;;;;5054502;28;20199;-61
2021/11/21 04:15:31;;;;;;;25.60;14.30;;;6.20;99.90;;;;;;5054731;28;20465;-61
2021/11/21 04:17:56;;;;;;;24.27;15.40;;;6.20;99.90;;;;;;5059886;28;20428;-61
2021/11/21 04:20:22;;;;;;;20.57;13.13;;;6.10;99.90;;;;;;5055965;28;21167;-61
2021/11/21 04:22:48;;;;;;;23.63;14.80;;;5.80;99.90;;;;;;5057988;28;20264;-61
2021/11/21 04:25:13;;;;;;;32.20;13.70;;;5.70;99.90;;;;;;5057315;28;20194;-61
2021/11/21 04:27:40;;;;;;;27.70;16.07;;;5.80;99.90;;;;;;5056235;28;20195;-61
2021/11/21 04:30:10;;;;;;;26.07;14.60;;;5.70;99.90;;;;;;5056271;28;20175;-60
2021/11/21 04:32:39;;;;;;;22.70;14.13;;;5.70;99.90;;;;;;5057651;28;20514;-61
2021/11/21 04:35:12;;;;;;;28.40;15.50;;;5.70;99.90;;;;;;5055869;28;20961;-61
2021/11/21 04:37:38;;;;;;;25.47;15.67;;;5.70;99.90;;;;;;5056433;28;20445;-60
2021/11/21 04:40:06;;;;;;;25.00;15.73;;;5.80;99.90;;;;;;5053832;28;20806;-60
2021/11/21 04:42:31;;;;;;;27.73;15.67;;;5.90;99.90;;;;;;5054217;28;20870;-62
2021/11/21 04:44:57;;;;;;;27.20;16.63;;;6.00;99.90;;;;;;5056523;28;20426;-61
2021/11/21 04:47:23;;;;;;;27.23;14.90;;;5.90;99.90;;;;;;5057287;28;20717;-61
2021/11/21 04:49:48;;;;;;;23.63;15.73;;;6.00;99.90;;;;;;5056508;28;20199;-61
2021/11/21 04:52:14;;;;;;;21.83;15.30;;;5.90;99.90;;;;;;5055160;28;20228;-61
2021/11/21 04:54:40;;;;;;;28.43;16.70;;;5.80;99.90;;;;;;5055439;28;20194;-61
2021/11/21 04:57:07;;;;;;;25.70;15.70;;;5.70;99.90;;;;;;5055560;28;20244;-61
2021/11/21 04:59:34;;;;;;;24.53;15.87;;;5.70;99.90;;;;;;5055746;28;20218;-62
2021/11/21 05:02:00;;;;;;;25.57;15.07;;;5.80;99.90;;;;;;5055467;28;20449;-61
2021/11/21 05:04:26;;;;;;;24.70;15.60;;;6.00;99.90;;;;;;5058358;28;20430;-61
2021/11/21 05:06:51;;;;;;;22.00;13.80;;;6.10;99.90;;;;;;5055581;28;20475;-61
2021/11/21 05:09:17;;;;;;;21.60;14.13;;;6.10;99.90;;;;;;5053750;28;20184;-61
2021/11/21 05:11:42;;;;;;;19.43;12.13;;;6.10;99.90;;;;;;5038130;28;20203;-62
2021/11/21 05:14:08;;;;;;;18.20;10.20;;;6.20;99.90;;;;;;5053867;28;20183;-64
2021/11/21 05:16:35;;;;;;;17.03;9.93;;;6.00;99.90;;;;;;5056560;28;20810;-61
2021/11/21 05:19:02;;;;;;;18.17;10.07;;;6.00;99.90;;;;;;5055944;28;20826;-61
2021/11/21 05:21:28;;;;;;;17.50;10.97;;;6.00;99.90;;;;;;5058800;28;20460;-61
2021/11/21 05:23:54;;;;;;;19.57;10.77;;;5.90;99.90;;;;;;5055264;28;20943;-61
2021/11/21 05:26:22;;;;;;;17.40;10.23;;;5.90;99.90;;;;;;5053752;28;20457;-61
2021/11/21 05:28:47;;;;;;;16.37;10.17;;;5.90;99.90;;;;;;5055690;28;20433;-61
2021/11/21 05:31:13;;;;;;;17.87;10.80;;;5.80;99.90;;;;;;5056916;28;20463;-61
2021/11/21 05:33:39;;;;;;;17.33;10.80;;;5.80;99.90;;;;;;5055091;28;20179;-61
2021/11/21 05:36:04;;;;;;;23.07;11.97;;;5.90;99.90;;;;;;5054307;28;20597;-61
2021/11/21 05:38:30;;;;;;;18.50;11.07;;;5.80;99.90;;;;;;5052907;28;20310;-61
2021/11/21 05:40:55;;;;;;;20.90;13.33;;;5.80;99.90;;;;;;5053902;28;20206;-61
2021/11/21 05:43:21;;;;;;;20.07;12.00;;;5.80;99.90;;;;;;5058219;28;20197;-61
2021/11/21 05:45:47;;;;;;;27.40;11.87;;;5.80;99.90;;;;;;5054795;28;20681;-61
2021/11/21 05:48:13;;;;;;;22.27;11.80;;;5.90;99.90;;;;;;5054595;28;20683;-61
2021/11/21 05:50:38;;;;;;;19.40;12.43;;;5.90;99.90;;;;;;5056793;28;20530;-61
2021/11/21 05:53:04;;;;;;;22.23;12.03;;;5.90;99.90;;;;;;5053951;28;20465;-61
2021/11/21 05:55:30;;;;;;;22.17;13.10;;;5.70;99.90;;;;;;5053847;28;20207;-62
2021/11/21 05:57:56;;;;;;;19.37;12.20;;;5.60;99.90;;;;;;5052948;28;20187;-61
2021/11/21 06:00:24;;;;;;;21.30;12.27;;;5.50;99.90;;;;;;5053175;28;20266;-63
2021/11/21 06:02:50;;;;;;;17.63;12.10;;;5.40;99.90;;;;;;5050298;28;20234;-61
2021/11/21 06:05:17;;;;;;;21.63;12.10;;;5.40;99.90;;;;;;5037097;28;20433;-61
2021/11/21 06:07:42;;;;;;;19.63;12.07;;;5.40;99.90;;;;;;5055742;28;20433;-61
2021/11/21 06:10:10;;;;;;;20.57;12.53;;;5.40;99.90;;;;;;5055700;28;20456;-61
2021/11/21 06:12:36;;;;;;;18.13;11.93;;;5.50;99.90;;;;;;5054773;28;20527;-61
2021/11/21 06:15:03;;;;;;;19.57;11.93;;;5.50;99.90;;;;;;5052894;28;20434;-62
2021/11/21 06:17:28;;;;;;;19.13;11.20;;;5.50;99.90;;;;;;5054963;28;20448;-62
2021/11/21 06:19:55;;;;;;;18.33;12.10;;;5.50;99.90;;;;;;5055474;28;20525;-62
2021/11/21 06:22:21;;;;;;;21.33;13.23;;;5.50;99.90;;;;;;5051309;28;20242;-61
2021/11/21 06:24:47;;;;;;;23.60;13.50;;;5.40;99.90;;;;;;5056102;28;20518;-61
2021/11/21 06:27:14;;;;;;;19.63;12.67;;;5.30;99.90;;;;;;5054178;28;20985;-62
2021/11/21 06:29:40;;;;;;;17.90;11.60;;;5.40;99.90;;;;;;5052383;28;20187;-61
2021/11/21 06:32:06;;;;;;;21.90;12.67;;;5.40;99.90;;;;;;5054422;28;21005;-62
2021/11/21 06:34:32;;;;;;;19.27;11.40;;;5.40;99.90;;;;;;5056611;28;20923;-62
2021/11/21 06:36:59;;;;;;;16.10;10.73;;;5.40;99.90;;;;;;5040843;28;20513;-62
2021/11/21 06:39:25;;;;;;;16.93;9.50;;;5.30;99.90;;;;;;5056411;28;21244;-62
2021/11/21 06:41:51;;;;;;;18.70;10.30;;;5.30;99.90;;;;;;5054173;28;20462;-62
2021/11/21 06:44:16;;;;;;;19.70;11.10;;;5.40;99.90;;;;;;5037874;28;20556;-62
2021/11/21 06:46:42;;;;;;;20.73;11.70;;;5.40;99.90;;;;;;5056087;28;20214;-62
2021/11/21 06:49:08;;;;;;;21.83;11.60;;;5.50;99.90;;;;;;5042300;28;20188;-62
2021/11/21 06:51:34;;;;;;;18.70;10.03;;;5.50;99.90;;;;;;5053493;28;20417;-62
2021/11/21 06:54:00;;;;;;;19.20;9.70;;;5.50;99.90;;;;;;5054434;28;20433;-62
2021/11/21 06:56:29;;;;;;;21.83;10.40;;;5.50;99.90;;;;;;5050146;28;20984;-62
2021/11/21 06:58:56;;;;;;;13.90;8.47;;;5.40;99.90;;;;;;5053917;28;20470;-61
2021/11/21 07:01:22;;;;;;;14.50;8.47;;;5.50;99.90;;;;;;5053485;28;20454;-61
2021/11/21 07:03:48;;;;;;;13.87;8.90;;;5.50;99.90;;;;;;5053388;28;20494;-61
2021/11/21 07:06:36;;;;;;;14.10;9.47;;;5.40;99.90;;;;;;5054376;28;20480;-60
2021/11/21 07:09:05;;;;;;;12.73;8.20;;;5.30;99.90;;;;;;5053804;28;20195;-61
2021/11/21 07:11:30;;;;;;;15.50;8.40;;;5.30;99.90;;;;;;5053282;28;20457;-61
2021/11/21 07:13:56;;;;;;;15.70;8.70;;;5.30;99.90;;;;;;5053487;28;20961;-61
2021/11/21 07:16:22;;;;;;;13.80;7.90;;;5.30;99.90;;;;;;5055144;28;20766;-61
2021/11/21 07:18:47;;;;;;;17.93;8.73;;;5.40;99.90;;;;;;5059121;28;20784;-61
2021/11/21 07:21:13;;;;;;;14.47;9.13;;;5.40;99.90;;;;;;5057891;28;20211;-61
2021/11/21 07:23:39;;;;;;;10.43;6.70;;;5.30;99.90;;;;;;5059283;28;20280;-61
2021/11/21 07:26:04;;;;;;;13.77;8.90;;;5.40;99.90;;;;;;5057956;28;20207;-61
2021/11/21 07:28:31;;;;;;;13.20;7.37;;;5.40;99.90;;;;;;5059156;28;20183;-61
2021/11/21 07:30:56;;;;;;;8.47;6.03;;;5.30;99.90;;;;;;5057468;28;20190;-61
2021/11/21 07:33:22;;;;;;;10.87;6.57;;;5.40;99.90;;;;;;5056251;28;20438;-61
2021/11/21 07:35:48;;;;;;;13.13;7.60;;;5.30;99.90;;;;;;5060344;28;20764;-61
2021/11/21 07:38:14;;;;;;;12.90;7.50;;;5.40;99.90;;;;;;5054854;28;20578;-61
2021/11/21 07:40:40;;;;;;;10.40;6.97;;;5.40;99.90;;;;;;5058390;28;20489;-61
2021/11/21 07:43:05;;;;;;;11.00;6.90;;;5.30;99.90;;;;;;5056235;28;20207;-61
2021/11/21 07:45:31;;;;;;;9.80;6.03;;;5.40;99.90;;;;;;5055634;28;20427;-62
2021/11/21 07:47:57;;;;;;;13.23;6.60;;;5.40;99.90;;;;;;5055002;28;20176;-61
2021/11/21 07:50:23;;;;;;;11.00;5.93;;;5.50;99.90;;;;;;5054183;28;20469;-61
2021/11/21 07:52:48;;;;;;;10.70;6.23;;;5.50;99.90;;;;;;5057104;28;20282;-62
2021/11/21 07:55:14;;;;;;;8.60;5.50;;;5.50;99.90;;;;;;5059467;28;20186;-61
2021/11/21 07:57:40;;;;;;;9.27;5.37;;;5.50;99.90;;;;;;5059224;28;20176;-62
2021/11/21 08:00:10;;;;;;;6.90;5.47;;;5.60;99.90;;;;;;5055573;28;20434;-62
2021/11/21 08:02:36;;;;;;;8.27;5.03;;;5.50;99.90;;;;;;5057926;28;20457;-61
2021/11/21 08:05:03;;;;;;;10.33;4.63;;;5.50;99.90;;;;;;5058907;28;20477;-61
2021/11/21 08:07:28;;;;;;;7.20;4.47;;;5.50;99.90;;;;;;5055665;28;20469;-62
2021/11/21 08:09:54;;;;;;;9.07;4.90;;;5.50;99.90;;;;;;5057879;28;20525;-62
2021/11/21 08:12:20;;;;;;;9.90;5.37;;;5.50;99.90;;;;;;5057000;28;20699;-62
2021/11/21 08:14:45;;;;;;;6.30;3.90;;;5.60;99.90;;;;;;5057872;28;20179;-62
2021/11/21 08:17:11;;;;;;;5.30;3.90;;;5.60;99.90;;;;;;5055662;28;20187;-62
2021/11/21 08:19:37;;;;;;;8.03;5.27;;;5.60;99.90;;;;;;5053153;28;20214;-62
2021/11/21 08:22:03;;;;;;;9.47;4.67;;;5.60;99.90;;;;;;5057385;28;20203;-62
2021/11/21 08:24:29;;;;;;;9.83;5.23;;;5.60;99.90;;;;;;5058510;28;20977;-62
2021/11/21 08:26:55;;;;;;;6.43;3.80;;;5.60;99.90;;;;;;5055205;28;20225;-62
2021/11/21 08:29:20;;;;;;;6.67;4.73;;;5.70;99.90;;;;;;5054143;28;20179;-63
2021/11/21 08:31:48;;;;;;;6.20;4.23;;;5.60;99.90;;;;;;5059001;28;20264;-61
2021/11/21 08:34:14;;;;;;;6.73;4.60;;;5.80;99.90;;;;;;5053713;28;20596;-61
2021/11/21 08:36:39;;;;;;;6.10;4.10;;;5.80;99.90;;;;;;5056390;28;20527;-61
2021/11/21 08:39:05;;;;;;;7.30;4.30;;;5.90;99.90;;;;;;5054616;28;20183;-61
2021/11/21 08:41:30;;;;;;;8.33;4.27;;;5.90;99.90;;;;;;5054680;28;20214;-62
2021/11/21 08:43:56;;;;;;;7.33;3.87;;;5.90;99.90;;;;;;5055426;28;20190;-62
2021/11/21 08:46:22;;;;;;;7.83;4.57;;;5.90;99.90;;;;;;5054055;28;20217;-62
2021/11/21 08:48:48;;;;;;;6.80;4.73;;;6.00;99.90;;;;;;5055425;28;20828;-62
2021/11/21 08:51:14;;;;;;;8.60;5.10;;;6.10;99.90;;;;;;5054156;28;20481;-60
2021/11/21 08:53:44;;;;;;;7.77;5.20;;;6.00;99.90;;;;;;5040969;28;20179;-61
2021/11/21 08:56:11;;;;;;;8.67;5.67;;;6.10;99.90;;;;;;5055387;28;20557;-62
2021/11/21 08:58:36;;;;;;;8.77;5.60;;;6.10;99.90;;;;;;5056097;28;20521;-62
2021/11/21 09:01:02;;;;;;;8.33;5.07;;;6.10;99.90;;;;;;5055287;28;20993;-62
2021/11/21 09:03:29;;;;;;;8.57;5.03;;;6.20;99.90;;;;;;5057346;28;20183;-61
2021/11/21 09:05:56;;;;;;;7.67;5.27;;;6.20;99.90;;;;;;5056678;28;20665;-61
2021/11/21 09:08:23;;;;;;;9.87;4.97;;;6.20;99.90;;;;;;5054146;28;20438;-62
2021/11/21 09:10:48;;;;;;;12.13;5.00;;;6.20;99.90;;;;;;5052774;28;20425;-62
2021/11/21 09:13:14;;;;;;;8.00;5.07;;;6.20;99.90;;;;;;5056022;28;20438;-62
2021/11/21 09:15:40;;;;;;;7.47;4.70;;;6.20;99.90;;;;;;5054309;28;20612;-61
2021/11/21 09:18:05;;;;;;;7.63;4.40;;;6.30;99.90;;;;;;5055055;28;20215;-62
2021/11/21 09:20:31;;;;;;;8.03;4.37;;;6.40;99.90;;;;;;5059436;28;20187;-62
2021/11/21 09:22:58;;;;;;;7.77;4.50;;;6.40;99.90;;;;;;5055639;28;20692;-62
2021/11/21 09:25:24;;;;;;;7.97;5.03;;;6.50;99.90;;;;;;5055549;28;20428;-62
2021/11/21 09:27:49;;;;;;;7.60;4.70;;;6.50;99.90;;;;;;5055479;28;20429;-62
2021/11/21 09:30:15;;;;;;;8.60;4.53;;;6.50;99.90;;;;;;5052533;28;20433;-62
2021/11/21 09:32:41;;;;;;;7.93;4.47;;;6.50;99.90;;;;;;5055013;28;20219;-62
2021/11/21 09:35:08;;;;;;;9.27;4.60;;;6.50;99.90;;;;;;5057518;28;20186;-62
2021/11/21 09:37:33;;;;;;;8.50;4.63;;;6.50;99.90;;;;;;5051800;28;20195;-62
2021/11/21 09:39:59;;;;;;;9.07;4.47;;;6.60;99.90;;;;;;5054343;28;20463;-62
2021/11/21 09:42:25;;;;;;;8.57;5.50;;;6.60;99.90;;;;;;5053845;28;20211;-60
2021/11/21 09:44:50;;;;;;;7.60;4.50;;;6.50;99.90;;;;;;5058107;28;20297;-61
2021/11/21 09:47:16;;;;;;;6.97;4.83;;;6.50;99.90;;;;;;5053830;28;20233;-62
2021/11/21 09:49:42;;;;;;;7.10;4.50;;;6.50;99.90;;;;;;5039976;28;20838;-62
2021/11/21 09:52:12;;;;;;;10.27;6.20;;;6.60;99.90;;;;;;5054820;28;20199;-62
2021/11/21 09:54:38;;;;;;;10.87;5.50;;;6.70;99.90;;;;;;5056892;28;20570;-62
2021/11/21 09:57:04;;;;;;;8.50;5.30;;;6.60;99.90;;;;;;5052800;28;20441;-62
2021/11/21 09:59:59;;;;;;;11.13;6.30;;;6.50;99.90;;;;;;5055317;28;20194;-63
2021/11/21 10:02:31;;;;;;;10.13;7.00;;;6.50;99.90;;;;;;5039969;28;20960;-62
2021/11/21 10:05:03;;;;;;;17.10;8.50;;;6.50;99.90;;;;;;5054426;28;20430;-62
2021/11/21 10:07:32;;;;;;;11.50;7.07;;;6.40;99.90;;;;;;5056091;28;20504;-62
2021/11/21 10:10:00;;;;;;;13.30;7.13;;;6.40;99.90;;;;;;5036391;28;20861;-61
2021/11/21 10:12:36;;;;;;;13.47;7.90;;;6.50;99.90;;;;;;5054635;28;20550;-62
2021/11/21 10:15:04;;;;;;;19.37;8.53;;;6.50;99.90;;;;;;5044206;28;20448;-62
2021/11/21 10:17:32;;;;;;;12.07;7.37;;;6.50;99.90;;;;;;5054923;28;20818;-62
2021/11/21 10:20:11;;;;;;;13.60;8.13;;;6.50;99.90;;;;;;5053875;28;20522;-61
2021/11/21 10:22:59;;;;;;;12.97;7.57;;;6.60;99.90;;;;;;5057749;28;20570;-62
2021/11/21 10:25:35;;;;;;;14.37;8.53;;;6.50;99.90;;;;;;5055658;28;20426;-61
2021/11/21 10:28:03;;;;;;;16.97;9.07;;;6.50;99.90;;;;;;5052959;28;20441;-61
2021/11/21 10:30:29;;;;;;;14.20;8.83;;;6.50;99.90;;;;;;5053221;28;20510;-62
2021/11/21 10:33:00;;;;;;;14.80;8.60;;;6.50;99.90;;;;;;5052522;28;20544;-62
2021/11/21 10:35:26;;;;;;;14.60;8.70;;;6.50;99.90;;;;;;5053528;28;20438;-62
2021/11/21 10:37:57;;;;;;;14.90;8.83;;;6.50;99.90;;;;;;5054655;28;20430;-61
2021/11/21 10:40:23;;;;;;;16.90;10.60;;;6.60;99.90;;;;;;5053064;28;20187;-62
2021/11/21 10:42:52;;;;;;;17.43;9.20;;;6.60;99.90;;;;;;5058335;28;20462;-61
2021/11/21 10:45:26;;;;;;;16.20;8.97;;;6.70;99.90;;;;;;5055216;28;20850;-61
2021/11/21 10:47:55;;;;;;;15.87;9.50;;;6.80;99.90;;;;;;5051501;28;20460;-61
2021/11/21 10:50:38;;;;;;;13.57;8.80;;;6.70;99.90;;;;;;5051551;28;20644;-62
2021/11/21 10:53:08;;;;;;;15.57;9.50;;;6.70;99.90;;;;;;5056336;28;20457;-61
2021/11/21 10:55:39;;;;;;;12.90;7.50;;;6.70;99.90;;;;;;5059997;28;20469;-61
2021/11/21 10:58:23;;;;;;;11.43;7.80;;;6.70;99.90;;;;;;5056393;28;20448;-61
2021/11/21 11:00:59;;;;;;;13.67;8.80;;;6.70;99.90;;;;;;5056357;28;20492;-62
2021/11/21 11:03:25;;;;;;;15.20;8.10;;;6.80;99.90;;;;;;5058082;28;20859;-61
2021/11/21 11:05:51;;;;;;;12.10;8.47;;;6.80;99.90;;;;;;5055741;28;20557;-61
2021/11/21 11:08:30;;;;;;;12.50;7.63;;;6.90;99.90;;;;;;5057943;28;20469;-62
2021/11/21 11:10:57;;;;;;;12.90;7.57;;;6.80;99.90;;;;;;5056748;28;20192;-61
2021/11/21 11:13:24;;;;;;;12.47;8.73;;;6.80;99.90;;;;;;5041742;28;20430;-62
2021/11/21 11:15:50;;;;;;;13.50;7.90;;;6.70;99.90;;;;;;5057642;28;20798;-62
2021/11/21 11:18:17;;;;;;;17.60;8.53;;;6.70;99.90;;;;;;5060242;28;20540;-63
2021/11/21 11:20:47;;;;;;;11.13;7.00;;;6.70;99.90;;;;;;5059494;28;20422;-61
2021/11/21 11:23:15;;;;;;;16.20;8.43;;;6.80;99.90;;;;;;5055582;28;20884;-62
2021/11/21 11:25:43;;;;;;;15.73;9.33;;;6.80;99.90;;;;;;5060023;28;20504;-62
2021/11/21 11:28:12;;;;;;;15.70;9.60;;;6.90;99.90;;;;;;5058697;28;20422;-62
2021/11/21 11:30:40;;;;;;;10.10;7.30;;;7.00;99.90;;;;;;5041677;28;20434;-62
2021/11/21 11:33:11;;;;;;;9.10;7.00;;;7.00;99.90;;;;;;5055202;28;20449;-62
2021/11/21 11:35:45;;;;;;;15.80;8.50;;;6.90;99.90;;;;;;5060663;28;20465;-61
2021/11/21 11:38:20;;;;;;;9.13;6.83;;;7.00;99.90;;;;;;5054727;28;20894;-62
2021/11/21 11:40:50;;;;;;;12.00;7.73;;;7.00;99.90;;;;;;5059431;28;20420;-62
2021/11/21 11:43:16;;;;;;;12.80;8.33;;;7.00;99.90;;;;;;5056766;28;20587;-62
2021/11/21 11:45:44;;;;;;;11.67;7.70;;;7.00;99.90;;;;;;5056565;28;20549;-62
2021/11/21 11:48:35;;;;;;;11.40;7.50;;;7.10;99.90;;;;;;5057375;28;20229;-62
2021/11/21 11:51:15;;;;;;;15.90;8.47;;;7.00;99.90;;;;;;5057362;28;20430;-62
2021/11/21 11:53:44;;;;;;;12.60;7.90;;;7.10;99.90;;;;;;5060075;28;20433;-62
2021/11/21 11:56:11;;;;;;;12.33;8.37;;;7.10;99.90;;;;;;5058289;28;20503;-62
2021/11/21 11:58:46;;;;;;;14.23;7.73;;;7.10;99.90;;;;;;5059114;28;20437;-62
2021/11/21 12:01:12;;;;;;;10.93;8.07;;;7.10;99.90;;;;;;5044814;28;20986;-61
2021/11/21 12:03:40;;;;;;;10.93;7.33;;;7.10;99.90;;;;;;5058577;28;20498;-62
2021/11/21 12:06:06;;;;;;;11.07;6.80;;;7.20;99.90;;;;;;5057284;28;20227;-61
2021/11/21 12:08:32;;;;;;;10.47;7.40;;;7.20;99.90;;;;;;5057057;28;20486;-61
2021/11/21 12:10:58;;;;;;;10.37;7.73;;;7.20;99.90;;;;;;5056493;28;20794;-61
2021/11/21 12:13:29;;;;;;;10.93;8.00;;;7.20;99.90;;;;;;5056573;28;20433;-60
2021/11/21 12:15:59;;;;;;;12.03;7.77;;;7.20;99.90;;;;;;5054749;28;20434;-61
2021/11/21 12:18:50;;;;;;;8.87;6.03;;;7.20;99.90;;;;;;5054752;28;20838;-61
2021/11/21 12:21:37;;;;;;;15.43;7.60;;;7.20;99.90;;;;;;5055315;28;20453;-62
2021/11/21 12:24:16;;;;;;;11.50;6.80;;;7.10;99.90;;;;;;5055128;28;20981;-62
2021/11/21 12:26:43;;;;;;;11.33;6.43;;;7.20;99.90;;;;;;5038793;28;20461;-62
2021/11/21 12:29:26;;;;;;;12.87;7.70;;;7.10;99.90;;;;;;5055814;28;20464;-62
2021/11/21 12:31:54;;;;;;;10.00;6.70;;;7.10;99.90;;;;;;5059236;28;20825;-62
2021/11/21 12:34:38;;;;;;;8.27;6.10;;;7.10;99.90;;;;;;5054357;28;20433;-62
2021/11/21 12:37:13;;;;;;;10.03;7.10;;;7.00;99.90;;;;;;5055458;28;20430;-62
2021/11/21 12:39:42;;;;;;;8.90;6.10;;;6.90;99.90;;;;;;5057525;28;20445;-62
2021/11/21 12:42:12;;;;;;;12.43;6.47;;;6.90;99.90;;;;;;5053271;28;20449;-62
2021/11/21 12:44:39;;;;;;;9.27;6.77;;;6.90;99.90;;;;;;5056862;28;20450;-62